Flight Track Log - Related Links

Times and Time Zones

All times are in EDT time to prevent confusion due to time zone crossing. See the SWA4963 flight status page for this flight to view local times or setup timezone preferences in your user account.

Time Position Orientation Groundspeed Altitude Reporting Facility
EDT Latitude Longitude Course Direction KTS MPH feet Rate Location/Type
Mon 09:54:48 PM 39.1167 -76.6333 270° West 203 234 3,400  Level Potomac TRACON
Mon 09:57:12 PM 39.1106 -76.4397 92° East 237 273 9,800 2,469 Climbing Washington Center
Mon 09:59:00 PM 39.1500 -76.1748 90° East  Level FlightAware Approximate
Mon 10:00:00 PM 39.1667 -76.6363 270° West  Level FlightAware Approximate
Mon 10:01:12 PM 39.1858 -75.9397 44° Northeast 374 430 19,200  Level Washington Center
Mon 10:02:12 PM 39.2383 -75.8167 61° Northeast 381 438 21,700 2,529 Climbing Washington Center
Mon 10:03:13 PM 39.3239 -75.7097 44° Northeast 390 449 24,300 2,281 Climbing Washington Center
Mon 10:04:13 PM 39.4094 -75.5997 45° Northeast 412 474 26,300 1,736 Climbing Washington Center
Mon 10:05:14 PM 39.5011 -75.4894 43° Northeast 425 489 27,800 1,563 Climbing Washington Center
Mon 10:06:00 PM 39.5823 -75.3649 44° Northeast  Level FlightAware Approximate
Mon 10:06:12 PM 39.6072 -75.3922 35° Northeast 449 517 29,400  Level Washington Center
Mon 10:07:13 PM 39.7153 -75.2947 35° Northeast 464 534 31,800 2,115 Climbing Washington Center
Mon 10:08:14 PM 39.8256 -75.2078 31° Northeast 464 534 33,700 1,769 Climbing Washington Center
Mon 10:08:31 PM 39.8450 -75.1969 23° Northeast 458 527 34,100 1,760 Climbing New York Center
Mon 10:09:29 PM 39.9603 -75.1203 27° Northeast 452 520 35,900 1,475 Climbing New York Center
Mon 10:10:29 PM 40.0697 -75.0403 29° Northeast 457 526 37,000 550 Climbing New York Center
Mon 10:11:29 PM 40.1786 -74.9628 29° Northeast 452 520 37,000  Level New York Center
Mon 10:12:29 PM 40.3003 -74.8858 26° Northeast 447 514 37,000  Level New York Center
Mon 10:13:29 PM 40.4144 -74.8381 18° North 441 507 37,000  Level New York Center
Mon 10:14:30 PM 40.5328 -74.7878 18° North 435 501 37,000  Level New York Center
Mon 10:15:31 PM 40.6492 -74.7372 18° North 435 501 37,000  Level New York Center
Mon 10:17:26 PM 40.8806 -74.6361 18° North 430 495 37,000  Level Boston Center
Mon 10:18:26 PM 40.9961 -74.5878 18° North 430 495 37,000  Level Boston Center
Mon 10:19:26 PM 41.1158 -74.5342 19° North 430 495 37,000  Level Boston Center
Mon 10:20:26 PM 41.2336 -74.4828 18° North 435 501 37,000  Level Boston Center
Mon 10:21:26 PM 41.3428 -74.4392 17° North 442 509 37,000  Level Boston Center
Mon 10:22:26 PM 41.4708 -74.3794 19° North 442 509 37,000  Level Boston Center
Mon 10:23:26 PM 41.5800 -74.3328 18° North 442 509 37,000 -350 Level Boston Center
Mon 10:24:26 PM 41.6997 -74.2808 18° North 448 516 36,300 -800 Descending Boston Center
Mon 10:25:26 PM 41.8131 -74.2339 17° North 440 506 35,400 -1,250 Descending Boston Center
Mon 10:26:26 PM 41.9286 -74.1814 19° North 435 501 33,800 -1,200 Descending Boston Center
Mon 10:27:26 PM 42.0461 -74.1286 18° North 435 501 33,000 -900 Descending Boston Center
Mon 10:28:26 PM 42.1311 -74.0133 45° Northeast 422 486 32,000 -1,000 Descending Boston Center
Mon 10:29:26 PM 42.1894 -73.8581 63° Northeast 429 494 31,000 -950 Descending Boston Center
Mon 10:30:26 PM 42.2475 -73.7050 63° Northeast 440 506 30,100 -1,000 Descending Boston Center
Mon 10:31:26 PM 42.3097 -73.5433 62° Northeast 465 535 29,000 -1,000 Descending Boston Center
Mon 10:32:26 PM 42.3692 -73.3983 61° Northeast 449 517 28,100 -1,091 Descending Boston Center
Mon 10:33:38 PM 42.4417 -73.2081 63° Northeast 449 517 26,600 -1,864 Descending Boston Center
Mon 10:34:38 PM 42.4967 -73.0653 62° Northeast 439 505 24,000 -2,550 Descending Boston Center
Mon 10:35:38 PM 42.5514 -72.9247 62° Northeast 423 487 21,500 -2,550 Descending Boston Center
Mon 10:36:38 PM 42.6042 -72.7928 61° Northeast 411 473 18,900 -2,450 Descending Boston Center
Mon 10:37:38 PM 42.6586 -72.6519 62° Northeast 390 449 16,600 -2,400 Descending Boston Center
Mon 10:38:38 PM 42.7089 -72.5250 62° Northeast 378 435 14,100 -2,500 Descending Boston Center
Mon 10:39:38 PM 42.7547 -72.4006 63° Northeast 373 429 11,600 -2,300 Descending Boston Center
Mon 10:40:38 PM 42.7964 -72.2758 65° Northeast 362 417 9,500 -1,250 Descending Boston Center
Mon 10:41:38 PM 42.8044 -72.1572 85° East 328 377 9,100 -650 Descending Boston Center
Mon 10:42:38 PM 42.8144 -72.0636 82° East 290 334 8,200 -1,100 Descending Boston Center
Mon 10:43:38 PM 42.8244 -71.9503 83° East 270 311 6,900 -1,250 Descending Boston Center
Mon 10:44:38 PM 42.8325 -71.8625 83° East 265 305 5,700 -1,350 Descending Boston Center
Mon 10:45:38 PM 42.8422 -71.7578 83° East 252 290 4,200 -1,500 Descending Boston Center
Mon 10:46:38 PM 42.8522 -71.6756 81° East 252 290 2,700 -1,100 Descending Boston Center
Mon 10:47:38 PM 42.8600 -71.5847 83° East 222 255 2,000 -400 Descending Boston Center
Mon 10:48:38 PM 42.8697 -71.5281 77° East 186 214 1,900 -550 Descending Boston Center
Mon 10:49:38 PM 42.9050 -71.4819 44° Northeast 156 180 900 -800 Descending Boston Center
Mon 10:50:38 PM 42.9275 -71.4506 46° Northeast 146 168 300 4,050 Descending Boston Center
Mon 10:51:38 PM 42.9606 -71.4075 44° Northeast 146 168 9,000 4,350 Climbing Boston Center
Mon 10:52:38 PM 42.9914 -71.3728 39° Northeast 146 168 9,000  Level Boston Center
Mon 10:53:38 PM 43.0222 -71.3353 42° Northeast 146 168 9,000  Level Boston Center
Mon 10:54:38 PM 43.0472 -71.3064 40° Northeast 146 168 9,000  Level Boston Center
Mon 10:56:00 PM 42.9245 -71.4258 215° Southwest  Level FlightAware Approximate
Mon 11:03:00 PM 42.9167 -71.4333 220° Southwest  Level FlightAware Approximate
Mon 11:04:00 PM 42.9328 -71.4358 220° Southwest  Level Estimated
Mon 11:05:00 PM 42.9328 -71.4358 220° Southwest  Level Estimated
Mon 11:06:00 PM 42.9328 -71.4358 220° Southwest  Level Estimated
Mon 11:07:00 PM 42.9328 -71.4358 220° Southwest  Level Estimated
Mon 11:08:00 PM 42.9328 -71.4358 220° Southwest  Level Estimated
Mon 11:09:00 PM 42.9328 -71.4358 220° Southwest  Level Estimated

Login

Don't have an account? Register now (free) for customized features, flight alerts, and more!